Time;durP1;ratioP1;P1;durP2;ratioP2;P2;SDS_P1;SDS_P2;PMS_P1;PMS_P2;Temp;Humidity;BMP_temperature;BMP_pressure;BME280_temperature;BME280_humidity;BME280_pressure;Samples;Min_cycle;Max_cycle;Signal;HPM_P1;HPM_P2
2023/10/24 00:00:52;;;;;;;53.10;31.10;;;;;;;7.65;100.00;100329.83;214458;1285;140047;-86
2023/10/24 00:05:53;;;;;;;51.90;31.20;;;;;;;7.62;100.00;100325.23;214844;1284;97975;-85
2023/10/24 00:11:04;;;;;;;54.50;30.60;;;;;;;7.63;100.00;100322.88;214306;1285;140286;-85
2023/10/24 00:16:04;;;;;;;52.90;30.40;;;;;;;7.64;100.00;100317.36;215046;1285;138682;-87
2023/10/24 00:21:06;;;;;;;69.90;34.30;;;;;;;7.64;100.00;100305.77;214410;1291;140069;-86
2023/10/24 00:26:06;;;;;;;64.30;32.50;;;;;;;7.67;100.00;100310.05;215091;1288;139022;-86
2023/10/24 00:31:07;;;;;;;58.80;31.70;;;;;;;7.70;100.00;100316.86;214484;1285;140057;-88
2023/10/24 00:36:09;;;;;;;60.10;32.30;;;;;;;7.73;100.00;100304.24;215216;1286;97928;-85
2023/10/24 00:41:09;;;;;;;58.50;32.90;;;;;;;7.73;100.00;100300.80;214533;1283;139684;-86
2023/10/24 00:46:10;;;;;;;54.30;30.40;;;;;;;7.74;100.00;100287.12;215124;1285;139992;-87
2023/10/24 00:51:11;;;;;;;60.50;33.70;;;;;;;7.80;100.00;100292.10;214520;1288;140168;-86
2023/10/24 00:56:12;;;;;;;54.00;32.70;;;;;;;7.83;100.00;100291.45;215197;1285;139004;-86
2023/10/24 01:01:13;;;;;;;49.90;29.90;;;;;;;7.84;100.00;100293.52;214676;1288;140260;-87
2023/10/24 01:06:18;;;;;;;60.80;34.40;;;;;;;7.86;100.00;100289.32;215182;1285;99172;-87
2023/10/24 01:11:18;;;;;;;60.70;33.40;;;;;;;7.90;100.00;100289.48;215235;1285;140346;-87
2023/10/24 01:16:20;;;;;;;67.40;35.80;;;;;;;7.93;100.00;100295.72;215616;1286;140304;-87
2023/10/24 01:21:21;;;;;;;56.10;32.20;;;;;;;7.96;100.00;100290.77;215319;1285;140368;-87
2023/10/24 01:26:22;;;;;;;59.90;31.90;;;;;;;7.98;100.00;100288.61;215389;1285;139895;-88
2023/10/24 01:31:24;;;;;;;57.10;32.90;;;;;;;7.99;100.00;100280.64;218738;1287;140252;-88
2023/10/24 01:36:24;;;;;;;57.00;32.70;;;;;;;8.00;100.00;100275.42;219199;1285;138964;-88
2023/10/24 01:41:25;;;;;;;64.40;33.90;;;;;;;8.04;100.00;100261.25;218840;1285;140413;-87
2023/10/24 01:46:26;;;;;;;57.30;29.50;;;;;;;8.12;100.00;100254.98;215025;1285;138909;-87
2023/10/24 01:51:27;;;;;;;59.40;30.90;;;;;;;8.17;100.00;100248.02;214088;1285;140079;-86
2023/10/24 01:56:28;;;;;;;58.00;32.20;;;;;;;8.24;100.00;100243.45;215071;1285;139384;-87
2023/10/24 02:01:29;;;;;;;54.20;30.90;;;;;;;8.29;100.00;100242.23;214565;1285;141012;-86
2023/10/24 02:06:29;;;;;;;51.20;29.00;;;;;;;8.35;100.00;100246.64;214893;1285;139041;-88
2023/10/24 02:11:29;;;;;;;58.00;30.20;;;;;;;8.37;100.00;100241.26;214695;1284;140518;-86
2023/10/24 02:16:30;;;;;;;48.10;28.30;;;;;;;8.40;100.00;100229.63;215235;1282;138659;-86
2023/10/24 02:21:30;;;;;;;54.70;30.00;;;;;;;8.45;100.00;100226.42;214751;1286;139965;-86
2023/10/24 02:26:31;;;;;;;49.30;28.60;;;;;;;8.48;100.00;100223.90;215332;1286;139129;-87
2023/10/24 02:31:32;;;;;;;51.00;28.00;;;;;;;8.51;100.00;100221.36;214682;1286;140177;-87
2023/10/24 02:36:33;;;;;;;53.80;28.70;;;;;;;8.53;100.00;100215.29;215065;1285;138857;-87
2023/10/24 02:41:33;;;;;;;50.40;27.30;;;;;;;8.55;100.00;100209.28;214418;1285;140108;-89
2023/10/24 02:46:33;;;;;;;53.70;29.90;;;;;;;8.57;100.00;100205.00;214946;1286;138740;-90
2023/10/24 02:51:36;;;;;;;49.60;29.10;;;;;;;8.60;100.00;100196.27;214665;1288;139948;-88
2023/10/24 02:56:36;;;;;;;55.20;29.50;;;;;;;8.65;100.00;100185.11;214877;1285;139803;-88
2023/10/24 03:01:37;;;;;;;50.70;29.20;;;;;;;8.69;100.00;100190.84;214539;1285;140335;-88
2023/10/24 03:06:38;;;;;;;69.90;38.40;;;;;;;8.71;100.00;100194.16;214724;1285;138930;-87
2023/10/24 03:11:38;;;;;;;53.40;29.50;;;;;;;8.71;100.00;100201.35;214518;1285;139891;-87
2023/10/24 03:16:39;;;;;;;53.70;29.40;;;;;;;8.70;100.00;100214.36;214913;1286;139310;-87
2023/10/24 03:21:39;;;;;;;50.00;29.60;;;;;;;8.68;100.00;100214.88;214360;1288;140548;-87
2023/10/24 03:26:40;;;;;;;47.60;27.50;;;;;;;8.67;100.00;100214.08;214566;1288;138957;-87
2023/10/24 03:31:40;;;;;;;49.60;27.30;;;;;;;8.66;100.00;100220.34;214225;1288;139943;-87
2023/10/24 03:36:40;;;;;;;47.40;27.50;;;;;;;8.66;100.00;100215.41;214937;1285;138793;-87
2023/10/24 03:41:41;;;;;;;49.90;27.00;;;;;;;8.67;100.00;100207.16;214341;1288;140767;-87
2023/10/24 03:46:41;;;;;;;54.50;28.90;;;;;;;8.67;100.00;100186.33;215064;1284;138992;-86
2023/10/24 03:51:42;;;;;;;45.60;26.60;;;;;;;8.71;100.00;100181.92;214511;1285;140679;-88
2023/10/24 03:56:44;;;;;;;45.60;27.50;;;;;;;8.73;100.00;100188.08;214982;1289;138987;-87
2023/10/24 04:01:45;;;;;;;48.10;27.60;;;;;;;8.75;100.00;100190.23;214255;1288;140538;-87
2023/10/24 04:06:45;;;;;;;47.10;27.30;;;;;;;8.75;100.00;100191.94;215030;1286;139590;-87
2023/10/24 04:11:46;;;;;;;50.30;26.90;;;;;;;8.75;100.00;100190.28;214401;1290;139860;-87
2023/10/24 04:16:46;;;;;;;56.00;29.10;;;;;;;8.75;100.00;100187.80;214733;1283;139501;-87
2023/10/24 04:21:47;;;;;;;53.90;29.10;;;;;;;8.75;100.00;100189.21;214191;1285;140194;-87
2023/10/24 04:26:47;;;;;;;54.00;28.30;;;;;;;8.76;100.00;100189.98;214932;1285;139124;-88
2023/10/24 04:31:49;;;;;;;110.70;49.80;;;;;;;8.77;100.00;100199.33;214493;1287;140327;-88
2023/10/24 04:36:50;;;;;;;67.80;34.10;;;;;;;8.78;100.00;100202.88;215244;1288;139044;-87
2023/10/24 04:41:50;;;;;;;63.30;32.90;;;;;;;8.79;100.00;100212.94;214706;1285;139811;-87
2023/10/24 04:46:51;;;;;;;58.70;32.10;;;;;;;8.82;100.00;100195.72;215112;1285;139433;-87
2023/10/24 04:51:52;;;;;;;60.60;32.80;;;;;;;8.84;100.00;100162.66;214681;1285;140216;-88
2023/10/24 04:56:52;;;;;;;66.90;34.60;;;;;;;8.85;100.00;100136.97;214946;1285;140044;-87
2023/10/24 05:01:53;;;;;;;76.60;38.20;;;;;;;8.88;100.00;100123.98;214505;1286;140989;-87
2023/10/24 05:06:53;;;;;;;88.60;38.70;;;;;;;8.94;100.00;100129.63;215277;1286;139940;-88
2023/10/24 05:11:54;;;;;;;124.10;49.00;;;;;;;8.98;100.00;100115.18;215391;1287;140047;-88
2023/10/24 05:16:54;;;;;;;91.20;41.30;;;;;;;9.03;100.00;100111.39;215548;1288;139338;-86
2023/10/24 05:21:56;;;;;;;111.80;44.20;;;;;;;9.08;100.00;100123.05;215201;1288;140378;-87
2023/10/24 05:26:57;;;;;;;416.80;159.30;;;;;;;9.11;100.00;100135.18;215260;1288;139009;-88
2023/10/24 05:31:58;;;;;;;130.50;54.00;;;;;;;9.14;100.00;100137.41;214923;1286;140560;-90
2023/10/24 05:36:59;;;;;;;141.30;51.80;;;;;;;9.17;100.00;100139.33;215138;1286;139045;-89
2023/10/24 05:42:00;;;;;;;86.70;37.50;;;;;;;9.19;100.00;100140.77;214628;1285;140026;-88
2023/10/24 05:47:01;;;;;;;95.80;41.20;;;;;;;9.22;100.00;100145.04;214730;1288;139544;-90
2023/10/24 05:52:02;;;;;;;73.30;36.10;;;;;;;9.23;100.00;100139.48;214730;1289;139838;-88
2023/10/24 05:57:03;;;;;;;96.60;44.90;;;;;;;9.27;100.00;100151.61;214729;1288;138896;-89
2023/10/24 06:02:05;;;;;;;126.30;48.60;;;;;;;9.29;100.00;100148.42;214345;1286;139821;-89
2023/10/24 06:07:06;;;;;;;105.20;40.70;;;;;;;9.32;100.00;100143.35;215160;1285;140088;-88
2023/10/24 06:12:10;;;;;;;74.50;36.20;;;;;;;9.36;100.00;100143.70;214569;1285;140182;-88
2023/10/24 06:17:17;;;;;;;72.50;32.90;;;;;;;9.41;100.00;100147.91;215180;1285;138750;-89
2023/10/24 06:22:17;;;;;;;;;;;;;;;9.45;100.00;100150.96;215008;1288;140008;-88
2023/10/24 06:27:18;;;;;;;86.90;37.70;;;;;;;9.49;100.00;100146.92;215866;1285;125032;-89
2023/10/24 06:32:18;;;;;;;91.70;42.40;;;;;;;9.54;100.00;100149.33;215205;1286;139919;-89
2023/10/24 06:37:19;;;;;;;88.70;39.70;;;;;;;9.60;100.00;100136.98;215608;1288;139250;-89
2023/10/24 06:42:19;;;;;;;75.80;38.10;;;;;;;9.65;100.00;100132.57;214813;1288;140062;-87
2023/10/24 06:47:25;;;;;;;84.80;41.40;;;;;;;9.71;100.00;100129.16;214980;1285;139612;-90
2023/10/24 06:52:26;;;;;;;75.40;38.00;;;;;;;9.76;100.00;100106.52;213836;1288;555972;-88
2023/10/24 06:57:26;;;;;;;78.30;38.40;;;;;;;9.83;100.00;100094.89;214976;1286;139011;-87
2023/10/24 07:02:27;;;;;;;91.40;40.80;;;;;;;9.89;100.00;100095.17;214261;1289;140799;-87
2023/10/24 07:07:27;;;;;;;86.80;38.10;;;;;;;9.97;100.00;100081.66;214759;1289;139444;-88
2023/10/24 07:12:28;;;;;;;70.50;35.40;;;;;;;10.04;100.00;100091.86;214493;1289;140438;-87
2023/10/24 07:17:32;;;;;;;63.50;33.30;;;;;;;10.11;100.00;100090.59;215267;1290;99287;-85
2023/10/24 07:22:32;;;;;;;71.30;33.60;;;;;;;10.20;100.00;100085.31;214663;1285;140316;-86
2023/10/24 07:27:33;;;;;;;67.20;29.60;;;;;;;10.32;100.00;100077.69;215801;1288;139884;-85
2023/10/24 07:32:34;;;;;;;49.20;25.60;;;;;;;10.45;100.00;100072.42;214955;1289;140775;-85
2023/10/24 07:37:36;;;;;;;61.10;29.80;;;;;;;10.58;100.00;100078.87;215505;1291;139771;-90
2023/10/24 07:42:36;;;;;;;50.20;27.20;;;;;;;10.71;100.00;100066.98;214970;1288;140390;-87
2023/10/24 07:47:37;;;;;;;47.30;26.30;;;;;;;10.79;100.00;100052.79;215674;1288;97980;-87
2023/10/24 07:52:37;;;;;;;48.70;25.90;;;;;;;10.88;100.00;100043.30;214683;1286;139784;-86
2023/10/24 07:57:38;;;;;;;44.20;22.80;;;;;;;11.03;100.00;100058.70;215286;1289;139374;-85
2023/10/24 08:02:38;;;;;;;40.20;23.50;;;;;;;11.16;100.00;100061.73;214800;1287;140801;-86
2023/10/24 08:07:39;;;;;;;41.70;22.50;;;;;;;11.36;100.00;100052.64;215568;1288;139244;-88
2023/10/24 08:12:39;;;;;;;39.40;23.40;;;;;;;11.54;100.00;100045.50;215019;1285;140233;-86
2023/10/24 08:17:40;;;;;;;39.40;20.60;;;;;;;11.68;100.00;100028.30;215564;1287;98878;-88
2023/10/24 08:22:40;;;;;;;31.00;19.30;;;;;;;11.78;100.00;100013.09;214167;1289;139970;-86
2023/10/24 08:27:45;;;;;;;37.30;20.80;;;;;;;11.90;100.00;100007.49;214629;1289;139257;-87
2023/10/24 08:32:45;;;;;;;30.20;19.10;;;;;;;12.02;100.00;99998.17;213974;1286;141821;-87
2023/10/24 08:37:47;;;;;;;31.90;19.60;;;;;;;12.16;100.00;99997.67;214579;1289;139010;-87
2023/10/24 08:42:48;;;;;;;34.70;17.30;;;;;;;12.30;100.00;99997.40;214266;1283;140507;-86
2023/10/24 08:47:49;;;;;;;54.40;25.40;;;;;;;12.49;100.00;100008.14;214855;1289;98045;-85
2023/10/24 08:52:51;;;;;;;60.60;26.80;;;;;;;12.64;100.00;99996.81;214202;1289;140715;-86
2023/10/24 08:57:52;;;;;;;41.30;20.00;;;;;;;12.78;100.00;99982.46;214748;1289;139006;-87
2023/10/24 09:02:56;;;;;;;40.30;19.20;;;;;;;12.89;100.00;99966.23;214220;1289;140222;-86
2023/10/24 09:07:57;;;;;;;43.40;16.30;;;;;;;13.01;100.00;99953.87;214986;1288;139242;-87
2023/10/24 09:12:58;;;;;;;31.90;16.10;;;;;;;13.14;100.00;99943.20;214316;1286;140617;-90
2023/10/24 09:18:01;;;;;;;25.00;14.70;;;;;;;13.34;100.00;99942.83;214731;1289;111519;-90
2023/10/24 09:23:09;;;;;;;23.60;14.10;;;;;;;13.59;100.00;99937.55;214098;1288;140165;-86
2023/10/24 09:28:29;;;;;;;22.80;12.80;;;;;;;13.83;100.00;99926.80;214770;1286;139399;-87
2023/10/24 09:33:32;;;;;;;26.70;12.50;;;;;;;13.94;100.00;99922.28;214315;1291;139856;-89
2023/10/24 09:38:34;;;;;;;27.10;13.90;;;;;;;13.97;100.00;99917.73;214927;1288;139081;-87
2023/10/24 09:43:40;;;;;;;22.00;12.20;;;;;;;13.97;100.00;99913.86;214226;1289;140287;-90
2023/10/24 09:48:43;;;;;;;18.10;9.90;;;;;;;13.98;100.00;99915.20;214521;1285;139039;-90
2023/10/24 09:53:44;;;;;;;20.80;9.20;;;;;;;14.00;100.00;99906.80;214309;1285;140014;-88
2023/10/24 09:58:46;;;;;;;18.90;9.10;;;;;;;14.04;100.00;99893.71;214864;1286;140035;-88
2023/10/24 10:03:49;;;;;;;18.40;9.00;;;;;;;14.11;100.00;99882.23;214302;1286;139765;-87
2023/10/24 10:08:52;;;;;;;16.20;8.00;;;;;;;14.17;100.00;99880.19;214636;1286;139234;-92
2023/10/24 10:14:07;;;;;;;18.90;9.40;;;;;;;14.25;100.00;99881.33;214345;1288;140131;-88
2023/10/24 10:19:15;;;;;;;17.20;9.70;;;;;;;14.27;100.00;99877.95;214415;1286;140088;-88
2023/10/24 10:24:39;;;;;;;19.60;8.80;;;;;;;14.28;100.00;99870.13;215060;1288;101761;-88
2023/10/24 10:30:04;;;;;;;19.70;10.20;;;;;;;14.34;100.00;99871.07;214592;1285;141458;-89
2023/10/24 10:35:07;;;;;;;19.00;9.70;;;;;;;14.39;100.00;99867.70;214938;1287;138943;-91
2023/10/24 10:40:22;;;;;;;16.70;9.20;;;;;;;14.43;100.00;99858.52;214075;1285;140128;-88
2023/10/24 10:45:32;;;;;;;18.50;9.90;;;;;;;14.48;100.00;99859.89;214849;1284;139158;-88
2023/10/24 10:50:35;;;;;;;21.70;11.10;;;;;;;14.50;100.00;99850.99;214229;1288;139986;-86
2023/10/24 10:56:01;;;;;;;31.40;18.60;;;;;;;14.56;100.00;99845.45;214587;1287;139054;-88
2023/10/24 11:01:30;;;;;;;39.40;17.10;;;;;;;14.63;100.00;99839.49;214196;1287;140231;-88
2023/10/24 11:06:31;;;;;;;21.00;12.30;;;;;;;14.66;100.00;99827.50;214538;1288;139222;-87
2023/10/24 11:11:31;;;;;;;21.10;10.70;;;;;;;14.69;100.00;99803.88;214203;1289;140466;-88
2023/10/24 11:16:32;;;;;;;18.00;10.40;;;;;;;14.72;100.00;99781.43;214683;1284;139056;-90
2023/10/24 11:21:34;;;;;;;19.20;10.50;;;;;;;14.81;100.00;99759.83;214098;1289;140953;-89
2023/10/24 11:26:37;;;;;;;24.10;12.00;;;;;;;14.91;100.00;99746.91;214372;1286;139048;-87
2023/10/24 11:31:38;;;;;;;19.80;10.30;;;;;;;15.04;100.00;99734.98;214338;1285;139925;-87
2023/10/24 11:36:43;;;;;;;18.40;9.40;;;;;;;15.16;100.00;99738.70;214714;1288;139031;-90
2023/10/24 11:41:44;;;;;;;27.00;9.70;;;;;;;15.27;100.00;99739.77;214294;1288;139901;-89
2023/10/24 11:46:44;;;;;;;15.80;8.70;;;;;;;15.28;100.00;99755.20;214988;1288;138849;-89
2023/10/24 11:51:46;;;;;;;20.00;9.90;;;;;;;15.26;100.00;99759.25;214453;1287;139725;-89
2023/10/24 11:56:47;;;;;;;22.60;10.40;;;;;;;15.32;100.00;99769.00;215084;1283;138892;-87
2023/10/24 12:01:48;;;;;;;20.20;10.50;;;;;;;15.42;100.00;99775.09;214349;1288;140130;-87
2023/10/24 12:06:59;;;;;;;25.40;11.90;;;;;;;15.51;100.00;99785.69;214782;1285;139324;-86
2023/10/24 12:12:06;;;;;;;56.60;27.80;;;;;;;15.55;100.00;99793.61;214597;1285;142129;-87
2023/10/24 12:17:08;;;;;;;121.10;41.50;;;;;;;15.57;100.00;99794.13;214912;1285;140776;-91
2023/10/24 12:22:09;;;;;;;54.80;23.80;;;;;;;15.59;100.00;99776.98;214269;1285;140513;-86
2023/10/24 12:27:10;;;;;;;46.90;16.70;;;;;;;15.63;100.00;99773.80;215150;1285;139036;-90
2023/10/24 12:32:11;;;;;;;33.60;14.40;;;;;;;15.66;100.00;99757.25;214174;1288;140326;-88
2023/10/24 12:37:11;;;;;;;32.30;13.90;;;;;;;15.69;100.00;99735.31;214882;1288;139264;-86
2023/10/24 12:42:12;;;;;;;24.70;12.60;;;;;;;15.68;100.00;99721.30;214579;1285;140556;-88
2023/10/24 12:47:12;;;;;;;31.50;14.70;;;;;;;15.68;100.00;99713.55;215183;1285;139417;-86
2023/10/24 12:52:13;;;;;;;49.10;19.30;;;;;;;15.62;100.00;99703.13;214746;1286;140177;-86
2023/10/24 12:57:14;;;;;;;34.90;14.00;;;;;;;15.62;100.00;99695.13;215165;1285;139277;-85
2023/10/24 13:02:14;;;;;;;25.30;10.70;;;;;;;15.55;100.00;99689.25;214117;1284;140200;-87
2023/10/24 13:07:16;;;;;;;29.30;13.50;;;;;;;15.47;100.00;99684.83;214750;1284;139315;-90
2023/10/24 13:12:16;;;;;;;28.40;12.90;;;;;;;15.40;100.00;99679.17;214564;1285;140011;-90
2023/10/24 13:17:17;;;;;;;27.00;10.50;;;;;;;15.32;100.00;99662.70;214814;1285;139767;-89
2023/10/24 13:22:18;;;;;;;34.10;13.90;;;;;;;15.26;100.00;99650.77;214068;1285;140374;-88
2023/10/24 13:27:19;;;;;;;73.80;26.20;;;;;;;15.22;100.00;99648.63;214852;1284;139718;-83
2023/10/24 13:32:20;;;;;;;31.10;14.10;;;;;;;15.19;100.00;99639.27;214416;1284;139882;-87
2023/10/24 13:37:20;;;;;;;34.70;14.90;;;;;;;15.14;100.00;99630.96;215206;1285;139664;-84
2023/10/24 13:42:21;;;;;;;26.90;12.30;;;;;;;15.09;100.00;99630.11;214617;1282;140447;-85
2023/10/24 13:47:21;;;;;;;23.30;10.60;;;;;;;15.02;100.00;99619.24;214838;1285;139870;-86
2023/10/24 13:52:22;;;;;;;21.60;10.20;;;;;;;14.95;100.00;99618.77;214228;1285;141048;-86
2023/10/24 13:57:22;;;;;;;21.40;9.60;;;;;;;14.90;100.00;99619.73;214619;1284;139343;-87
2023/10/24 14:02:23;;;;;;;17.20;9.70;;;;;;;14.89;100.00;99608.20;214137;1288;140323;-87
2023/10/24 14:07:24;;;;;;;19.90;9.20;;;;;;;14.82;100.00;99597.96;214766;1288;138996;-87
2023/10/24 14:12:24;;;;;;;12.60;7.30;;;;;;;14.77;100.00;99591.16;214259;1284;140386;-87
2023/10/24 14:17:25;;;;;;;16.10;8.00;;;;;;;14.71;100.00;99596.19;214585;1285;139146;-88
2023/10/24 14:22:28;;;;;;;17.70;8.50;;;;;;;14.65;100.00;99599.64;214483;1284;140620;-86
2023/10/24 14:27:29;;;;;;;15.00;8.50;;;;;;;14.61;100.00;99597.17;214827;1285;139375;-87
2023/10/24 14:32:29;;;;;;;18.60;9.10;;;;;;;14.56;100.00;99587.45;214418;1284;139666;-88
2023/10/24 14:37:30;;;;;;;19.10;9.50;;;;;;;14.49;100.00;99590.91;214684;1285;139064;-86
2023/10/24 14:42:31;;;;;;;17.30;8.90;;;;;;;14.45;100.00;99591.06;214486;1288;141657;-88
2023/10/24 14:47:32;;;;;;;22.20;10.90;;;;;;;14.41;100.00;99591.38;214825;1287;98404;-87
2023/10/24 14:52:33;;;;;;;61.40;28.60;;;;;;;14.34;100.00;99592.59;214074;1285;140577;-87
2023/10/24 14:57:34;;;;;;;101.90;31.20;;;;;;;14.28;100.00;99591.20;214871;1284;139562;-87
2023/10/24 15:02:35;;;;;;;38.40;17.20;;;;;;;14.20;100.00;99586.74;214008;1288;143755;-87
2023/10/24 15:07:36;;;;;;;29.60;13.20;;;;;;;14.09;100.00;99582.41;214831;1284;139756;-87
2023/10/24 15:12:36;;;;;;;26.40;12.10;;;;;;;14.00;100.00;99574.64;214155;1283;140761;-86
2023/10/24 15:17:37;;;;;;;24.30;11.90;;;;;;;13.90;100.00;99570.08;215026;1285;111152;-86
2023/10/24 15:22:37;;;;;;;21.60;10.30;;;;;;;13.80;100.00;99564.38;214331;1285;139557;-89
2023/10/24 15:27:38;;;;;;;29.40;13.00;;;;;;;13.73;100.00;99563.95;214787;1285;139758;-86
2023/10/24 15:32:39;;;;;;;27.20;13.00;;;;;;;13.68;100.00;99563.38;214443;1285;140236;-87
2023/10/24 15:37:40;;;;;;;24.70;12.40;;;;;;;13.61;100.00;99568.86;214749;1287;139556;-88
2023/10/24 15:42:40;;;;;;;19.80;10.80;;;;;;;13.54;100.00;99565.25;214175;1285;140566;-86
2023/10/24 15:47:41;;;;;;;22.30;10.70;;;;;;;13.50;100.00;99561.61;215134;1285;99315;-88
2023/10/24 15:52:44;;;;;;;21.00;10.90;;;;;;;13.44;100.00;99552.21;214207;1285;140340;-86
2023/10/24 15:57:44;;;;;;;19.20;11.30;;;;;;;13.39;100.00;99545.73;215113;1288;139011;-87
2023/10/24 16:02:45;;;;;;;26.90;15.10;;;;;;;13.33;100.00;99537.84;214676;1286;140173;-86
2023/10/24 16:07:46;;;;;;;34.20;15.30;;;;;;;13.29;100.00;99534.98;215225;1284;141033;-85
2023/10/24 16:12:47;;;;;;;28.90;15.70;;;;;;;13.24;100.00;99526.14;214050;1286;141646;-86
2023/10/24 16:17:48;;;;;;;38.60;17.70;;;;;;;13.22;100.00;99522.84;215060;1285;97959;-88
2023/10/24 16:22:48;;;;;;;28.90;15.70;;;;;;;13.18;100.00;99509.63;214462;1285;140376;-85
2023/10/24 16:27:53;;;;;;;31.60;17.60;;;;;;;13.16;100.00;99503.59;215165;1285;138827;-84
2023/10/24 16:32:55;;;;;;;44.70;21.50;;;;;;;13.14;100.00;99493.60;214680;1285;140149;-85
2023/10/24 16:37:59;;;;;;;26.00;15.50;;;;;;;13.11;100.00;99489.05;215288;1285;139743;-86
2023/10/24 16:43:00;;;;;;;31.40;16.90;;;;;;;13.08;100.00;99485.62;214805;1285;139893;-85
2023/10/24 16:48:00;;;;;;;41.50;20.90;;;;;;;13.06;100.00;99499.78;215260;1285;98334;-84
2023/10/24 16:53:01;;;;;;;44.00;20.00;;;;;;;13.02;100.00;99509.86;214643;1285;140166;-87
2023/10/24 16:58:02;;;;;;;32.70;17.40;;;;;;;13.00;100.00;99510.21;215100;1285;139291;-85
2023/10/24 17:03:03;;;;;;;83.30;45.50;;;;;;;12.99;100.00;99501.14;214596;1288;140657;-85
2023/10/24 17:08:03;;;;;;;41.90;29.40;;;;;;;12.97;100.00;99497.70;215893;1286;139198;-86
2023/10/24 17:13:04;;;;;;;40.10;21.80;;;;;;;12.95;100.00;99487.20;215151;1284;139821;-86
2023/10/24 17:18:04;;;;;;;28.30;17.30;;;;;;;12.93;100.00;99475.33;215393;1286;97973;-84
2023/10/24 17:23:05;;;;;;;32.60;17.80;;;;;;;12.90;100.00;99468.33;214729;1285;139911;-85
2023/10/24 17:28:07;;;;;;;33.90;17.70;;;;;;;12.89;100.00;99461.16;215302;1285;139233;-85
2023/10/24 17:33:07;;;;;;;31.50;17.60;;;;;;;12.87;100.00;99449.05;214438;1283;140519;-85
2023/10/24 17:38:08;;;;;;;27.10;18.20;;;;;;;12.82;100.00;99437.92;215120;1285;139534;-84
2023/10/24 17:43:08;;;;;;;32.20;18.50;;;;;;;12.81;100.00;99443.45;214798;1288;139980;-85
2023/10/24 17:48:09;;;;;;;31.90;19.30;;;;;;;12.78;100.00;99434.82;215144;1283;99418;-84
2023/10/24 17:53:10;;;;;;;36.10;20.00;;;;;;;12.75;100.00;99433.44;214272;1285;139789;-86
2023/10/24 17:58:11;;;;;;;31.70;20.40;;;;;;;12.75;100.00;99437.70;215093;1285;139396;-86
2023/10/24 18:03:12;;;;;;;34.30;18.90;;;;;;;12.73;100.00;99427.47;214905;1285;141022;-85
2023/10/24 18:08:13;;;;;;;33.50;19.40;;;;;;;12.73;100.00;99424.79;215262;1285;139331;-86
2023/10/24 18:13:14;;;;;;;33.70;19.00;;;;;;;12.72;100.00;99414.31;215016;1285;140194;-86
2023/10/24 18:18:15;;;;;;;32.80;18.00;;;;;;;12.70;100.00;99408.97;215830;1288;98408;-86
2023/10/24 18:23:16;;;;;;;32.30;18.40;;;;;;;12.68;100.00;99408.35;215359;1284;140067;-86
2023/10/24 18:28:17;;;;;;;37.40;19.30;;;;;;;12.68;100.00;99401.10;215535;1285;139282;-85
2023/10/24 18:33:17;;;;;;;30.00;18.60;;;;;;;12.69;100.00;99399.04;215163;1288;140522;-86
2023/10/24 18:38:18;;;;;;;30.00;17.10;;;;;;;12.69;100.00;99390.61;215719;1285;139574;-86
2023/10/24 18:43:19;;;;;;;31.00;17.90;;;;;;;12.67;100.00;99384.02;215070;1285;140378;-85
2023/10/24 18:48:20;;;;;;;28.40;16.60;;;;;;;12.66;100.00;99379.53;215086;1285;98109;-87
2023/10/24 18:53:21;;;;;;;27.90;16.80;;;;;;;12.64;100.00;99374.44;214198;1285;295652;-86
2023/10/24 18:58:21;;;;;;;30.40;18.10;;;;;;;12.62;100.00;99376.51;215219;1285;139208;-86
2023/10/24 19:03:23;;;;;;;31.70;18.80;;;;;;;12.60;100.00;99371.65;214251;1288;140048;-87
2023/10/24 19:08:23;;;;;;;27.10;17.90;;;;;;;12.59;100.00;99369.06;214784;1285;139038;-87
2023/10/24 19:13:26;;;;;;;34.80;19.20;;;;;;;12.57;100.00;99366.58;214234;1286;140864;-87
2023/10/24 19:18:27;;;;;;;30.10;18.70;;;;;;;12.55;100.00;99359.83;215082;1285;97963;-89
2023/10/24 19:23:28;;;;;;;37.00;19.70;;;;;;;12.53;100.00;99351.55;214127;1288;140024;-87
2023/10/24 19:28:29;;;;;;;29.10;18.10;;;;;;;12.51;100.00;99343.15;214858;1288;139266;-87
2023/10/24 19:33:30;;;;;;;37.30;20.10;;;;;;;12.50;100.00;99333.16;214592;1285;141089;-85
2023/10/24 19:38:33;;;;;;;35.50;19.90;;;;;;;12.50;100.00;99327.10;215096;1285;139597;-86
2023/10/24 19:43:34;;;;;;;35.20;19.90;;;;;;;12.48;100.00;99314.58;214358;1286;140723;-85
2023/10/24 19:48:36;;;;;;;38.40;20.80;;;;;;;12.47;100.00;99306.23;214865;1285;139199;-87
2023/10/24 19:53:37;;;;;;;37.40;21.90;;;;;;;12.46;100.00;99292.68;214536;1282;140446;-87
2023/10/24 19:58:39;;;;;;;46.70;23.30;;;;;;;12.46;100.00;99281.72;215037;1284;139184;-87
2023/10/24 20:03:40;;;;;;;114.30;50.90;;;;;;;12.45;100.00;99266.13;214587;1285;140309;-86
2023/10/24 20:08:44;;;;;;;100.00;40.10;;;;;;;12.44;100.00;99264.64;215410;1285;140031;-85
2023/10/24 20:13:45;;;;;;;58.10;27.90;;;;;;;12.44;100.00;99258.27;214346;1286;140891;-85
2023/10/24 20:18:49;;;;;;;47.80;26.00;;;;;;;12.45;100.00;99257.77;215331;1285;139437;-86
2023/10/24 20:23:51;;;;;;;44.90;26.40;;;;;;;12.45;100.00;99247.29;214713;1286;140059;-85
2023/10/24 20:28:56;;;;;;;37.20;22.00;;;;;;;12.45;100.00;99244.06;215117;1285;138934;-90
2023/10/24 20:33:58;;;;;;;35.00;23.10;;;;;;;12.43;100.00;99238.25;215516;1287;140359;-86
2023/10/24 20:38:59;;;;;;;35.70;22.10;;;;;;;12.42;100.00;99233.93;216122;1285;140082;-85
2023/10/24 20:43:59;;;;;;;38.90;23.50;;;;;;;12.43;100.00;99231.55;214917;1286;140855;-86
2023/10/24 20:49:01;;;;;;;35.30;23.70;;;;;;;12.42;100.00;99229.76;215024;1287;140139;-85
2023/10/24 20:54:01;;;;;;;38.60;23.80;;;;;;;12.40;100.00;99224.02;214832;1285;140016;-86
2023/10/24 20:59:02;;;;;;;37.90;24.00;;;;;;;12.37;100.00;99220.45;215276;1288;139186;-85
2023/10/24 21:04:03;;;;;;;33.90;23.60;;;;;;;12.35;100.00;99221.66;214754;1288;139982;-87
2023/10/24 21:09:04;;;;;;;35.10;23.30;;;;;;;12.32;100.00;99224.39;214949;1285;139497;-85
2023/10/24 21:14:04;;;;;;;35.60;24.20;;;;;;;12.29;100.00;99222.33;214771;1288;139745;-86
2023/10/24 21:19:05;;;;;;;37.30;23.20;;;;;;;12.26;100.00;99221.66;215034;1285;139085;-85
2023/10/24 21:24:07;;;;;;;36.10;22.80;;;;;;;12.24;100.00;99220.42;214302;1285;140261;-86
2023/10/24 21:29:08;;;;;;;39.60;23.10;;;;;;;12.19;100.00;99210.94;214977;1288;138955;-88
2023/10/24 21:34:08;;;;;;;37.70;24.90;;;;;;;12.18;100.00;99200.73;214800;1285;154138;-88
2023/10/24 21:39:09;;;;;;;39.80;23.50;;;;;;;12.15;100.00;99192.02;214505;1285;140280;-88
2023/10/24 21:44:10;;;;;;;39.40;23.80;;;;;;;12.13;100.00;99186.70;215063;1285;139067;-90
2023/10/24 21:49:11;;;;;;;42.30;25.80;;;;;;;12.09;100.00;99180.05;214511;1288;140371;-91
2023/10/24 21:54:11;;;;;;;43.70;25.60;;;;;;;12.07;100.00;99175.85;215291;1285;98392;-88
2023/10/24 21:59:11;;;;;;;36.00;23.20;;;;;;;12.06;100.00;99180.05;214544;1288;140070;-89
2023/10/24 22:04:12;;;;;;;39.20;24.20;;;;;;;12.03;100.00;99174.48;215009;1288;139752;-89
2023/10/24 22:09:13;;;;;;;39.40;23.90;;;;;;;12.00;100.00;99172.00;214220;1285;140555;-90
2023/10/24 22:14:13;;;;;;;45.20;25.50;;;;;;;11.97;100.00;99168.03;214924;1288;139336;-89
2023/10/24 22:19:14;;;;;;;45.20;26.60;;;;;;;11.97;100.00;99170.32;214264;1285;139954;-90